Have a Safe July 4th! 

Flight Track Log - Related Links

Times and Time Zones

All times are in EST time to prevent confusion due to time zone crossing. See the EJA122 flight status page for this flight to view local times or setup timezone preferences in your user account.

Time Position Orientation Groundspeed Altitude Reporting Facility
EST Latitude Longitude Course Direction KTS MPH feet Rate Location/Type
Mon 10:00:13 AM 27.4167 -82.6000 299° West 222 255 1,700  Level Tampa TRACON
Mon 10:01:13 AM 27.4000 -82.6667 254° West 257 296 3,900 2,600 Climbing Tampa TRACON
Mon 10:02:13 AM 27.4333 -82.7333 299° West 243 280 6,900 2,900 Climbing Tampa TRACON
Mon 10:03:13 AM 27.4667 -82.7833 307° West 249 287 9,700 1,856 Climbing Tampa TRACON
Mon 10:05:14 AM 27.6150 -82.7900 358° North 267 307 12,500 1,548 Climbing Miami Center
Mon 10:06:54 AM 27.7597 -82.7917 359° North 316 364 15,400 1,575 Climbing Jacksonville Center
Mon 10:07:54 AM 27.8472 -82.7869 North 316 364 16,700 1,200 Climbing Jacksonville Center
Mon 10:08:54 AM 27.9433 -82.7892 359° North 326 375 17,800 1,250 Climbing Jacksonville Center
Mon 10:09:54 AM 28.0372 -82.7892 360° North 331 381 19,200 1,450 Climbing Jacksonville Center
Mon 10:10:54 AM 28.1353 -82.7867 North 336 387 20,700 1,350 Climbing Jacksonville Center
Mon 10:11:54 AM 28.2314 -82.7889 359° North 341 392 21,900 1,100 Climbing Jacksonville Center
Mon 10:12:54 AM 28.3272 -82.7864 North 346 398 22,900 1,050 Climbing Jacksonville Center
Mon 10:13:54 AM 28.4253 -82.7911 358° North 346 398 24,000 1,050 Climbing Jacksonville Center
Mon 10:14:54 AM 28.5256 -82.8264 343° North 351 404 25,000 1,000 Climbing Jacksonville Center
Mon 10:15:54 AM 28.6300 -82.8594 344° North 372 428 26,000 1,000 Climbing Jacksonville Center
Mon 10:16:54 AM 28.7217 -82.9164 331° Northwest 380 437 27,000 1,000 Climbing Jacksonville Center
Mon 10:17:54 AM 28.8136 -82.9825 328° Northwest 380 437 28,000 950 Climbing Jacksonville Center
Mon 10:18:54 AM 28.9075 -83.0564 325° Northwest 393 452 28,900 950 Climbing Jacksonville Center
Mon 10:19:54 AM 28.9969 -83.1253 326° Northwest 398 458 29,900 1,000 Climbing Jacksonville Center
Mon 10:20:54 AM 29.0908 -83.1944 327° Northwest 398 458 30,900 1,050 Climbing Jacksonville Center
Mon 10:21:54 AM 29.1844 -83.2636 327° Northwest 398 458 32,000 1,000 Climbing Jacksonville Center
Mon 10:22:54 AM 29.2803 -83.3353 327° Northwest 398 458 32,900 900 Climbing Jacksonville Center
Mon 10:23:54 AM 29.3742 -83.4072 326° Northwest 398 458 33,800 550 Climbing Jacksonville Center
Mon 10:24:54 AM 29.4697 -83.4794 327° Northwest 403 464 34,000 100 Climbing Jacksonville Center
Mon 10:25:54 AM 29.5653 -83.5539 326° Northwest 408 470 34,000  Level Jacksonville Center
Mon 10:26:54 AM 29.6611 -83.6264 327° Northwest 413 475 34,000  Level Jacksonville Center
Mon 10:27:54 AM 29.7586 -83.7011 326° Northwest 418 481 34,000  Level Jacksonville Center
Mon 10:28:54 AM 29.8647 -83.7811 327° Northwest 418 481 34,000  Level Jacksonville Center
Mon 10:29:54 AM 29.9622 -83.8539 327° Northwest 418 481 34,000  Level Jacksonville Center
Mon 10:30:54 AM 30.0578 -83.9294 326° Northwest 418 481 34,000  Level Jacksonville Center
Mon 10:31:54 AM 30.1511 -84.0000 327° Northwest 418 481 34,000  Level Jacksonville Center
Mon 10:32:54 AM 30.2486 -84.0756 326° Northwest 418 481 34,000  Level Jacksonville Center
Mon 10:33:54 AM 30.3439 -84.1489 326° Northwest 418 481 34,000  Level Jacksonville Center
Mon 10:34:54 AM 30.4247 -84.2103 327° Northwest 418 481 34,000  Level Jacksonville Center
Mon 10:35:54 AM 30.5200 -84.2839 326° Northwest 413 475 34,000  Level Jacksonville Center
Mon 10:36:54 AM 30.6214 -84.3675 325° Northwest 413 475 34,000  Level Jacksonville Center
Mon 10:38:00 AM 30.7106 -84.4371 326° Northwest  Level FlightAware Approximate
Mon 10:38:54 AM 30.8117 -84.5108 326° Northwest 413 475 34,000  Level Jacksonville Center
Mon 10:39:54 AM 30.9067 -84.5900 324° Northwest 413 475 34,000  Level Jacksonville Center
Mon 10:40:54 AM 30.9975 -84.6642 325° Northwest 413 475 34,000  Level Jacksonville Center
Mon 10:41:54 AM 31.0944 -84.7389 327° Northwest 418 481 34,000  Level Jacksonville Center
Mon 10:44:20 AM 31.3239 -84.9189 326° Northwest 407 468 34,000  Level Atlanta Center
Mon 10:45:20 AM 31.4175 -84.9928 326° Northwest 407 468 34,000  Level Atlanta Center
Mon 10:46:20 AM 31.5106 -85.0667 326° Northwest 407 468 34,000  Level Atlanta Center
Mon 10:47:20 AM 31.6039 -85.1411 326° Northwest 402 463 34,000 -450 Level Atlanta Center
Mon 10:48:20 AM 31.6950 -85.2153 325° Northwest 407 468 33,100 -1,200 Descending Atlanta Center
Mon 10:49:20 AM 31.7883 -85.2875 327° Northwest 407 468 31,600 -1,550 Descending Atlanta Center
Mon 10:50:20 AM 31.8836 -85.3644 326° Northwest 407 468 30,000 -1,600 Descending Atlanta Center
Mon 10:51:20 AM 31.9808 -85.4442 325° Northwest 413 475 28,400 -1,550 Descending Atlanta Center
Mon 10:52:20 AM 32.0781 -85.5219 326° Northwest 419 482 26,900 -1,500 Descending Atlanta Center
Mon 10:53:20 AM 32.1750 -85.6019 325° Northwest 424 488 25,400 -1,500 Descending Atlanta Center
Mon 10:54:20 AM 32.2742 -85.6800 326° Northwest 424 488 23,900 -1,500 Descending Atlanta Center
Mon 10:55:20 AM 32.3692 -85.7578 325° Northwest 419 482 22,400 -1,550 Descending Atlanta Center
Mon 10:56:20 AM 32.4597 -85.8408 322° Northwest 413 475 20,800 -1,500 Descending Atlanta Center
Mon 10:57:20 AM 32.5486 -85.9042 329° Northwest 413 475 19,400 -1,400 Descending Atlanta Center
Mon 10:58:20 AM 32.6433 -85.9828 325° Northwest 419 482 18,000 -1,550 Descending Atlanta Center
Mon 10:59:20 AM 32.7361 -86.0564 326° Northwest 413 475 16,300 -1,750 Descending Atlanta Center
Mon 11:00:20 AM 32.8267 -86.1325 325° Northwest 408 470 14,500 -1,650 Descending Atlanta Center
Mon 11:01:20 AM 32.9111 -86.2064 324° Northwest 396 456 13,000 -1,594 Descending Atlanta Center
Mon 11:01:24 AM 32.9233 -86.2214 314° West 380 437 12,800 -1,300 Descending Atlanta Center
Mon 11:02:20 AM 32.9975 -86.2753 329° Northwest 385 443 11,700 -1,254 Descending Atlanta Center
Mon 11:02:31 AM 33.0158 -86.2981 314° West 370 426 11,400 -800 Descending Atlanta Center
Mon 11:03:20 AM 33.0817 -86.3444 329° Northwest 380 437 10,900 -716 Descending Atlanta Center
Mon 11:03:38 AM 33.1064 -86.3725 316° Northwest 340 391 10,600 -1,300 Descending Atlanta Center
Mon 11:04:20 AM 33.1561 -86.3961 338° Northwest 349 402 9,600 -1,600 Descending Atlanta Center
Mon 11:04:38 AM 33.1828 -86.4142 330° Northwest 288 331 9,000 -1,600 Descending Atlanta Center
Mon 11:05:20 AM 33.2306 -86.4303 344° North 310 357 8,000 -1,745 Descending Atlanta Center
Mon 11:05:33 AM 33.2444 -86.4606 299° West 283 326 7,400 -1,700 Descending Atlanta Center
Mon 11:06:20 AM 33.2811 -86.5039 315° West 291 335 6,300 -1,700 Descending Atlanta Center
Mon 11:06:33 AM 33.2953 -86.5292 304° West 280 322 5,700 -1,300 Descending Atlanta Center
Mon 11:07:20 AM 33.3358 -86.5825 312° West 273 314 5,000 -689 Descending Atlanta Center
Mon 11:07:34 AM 33.3439 -86.6025 296° West 273 314 5,000  Level Atlanta Center
Mon 11:08:20 AM 33.3825 -86.6533 312° West 273 314 5,000  Level Atlanta Center
Mon 11:08:29 AM 33.3883 -86.6686 295° West 277 319 5,000 -700 Level Atlanta Center
Mon 11:09:20 AM 33.4311 -86.7222 314° West 278 320 4,300 -1,000 Descending Atlanta Center
Mon 11:09:29 AM 33.4350 -86.7372 287° West 271 312 4,000 -1,400 Descending Atlanta Center
Mon 11:10:20 AM 33.4692 -86.7906 308° West 270 311 2,900 -1,082 Descending Atlanta Center
Mon 11:10:30 AM 33.4711 -86.8056 279° West 218 251 2,900 -711 Level Atlanta Center
Mon 11:11:36 AM 33.5078 -86.8417 321° Northwest 137 158 2,000 -722 Descending Atlanta Center
Mon 11:12:43 AM 33.5336 -86.8075 48° Northeast 112 129 1,300 -627 Descending Atlanta Center
Mon 11:14:00 AM 33.5500 -86.7500 309° West  Level FlightAware Approximate
Mon 11:21:00 AM 33.5639 -86.7523 309° West  Level Estimated

Login

Don't have an account? Register now (free) for customized features, flight alerts, and more!